Albert Lea, Minnesota
Current Conditions -  °F | °C
As of 2:31 AM on Monday 22 Dec 2014 (Local Time) from KAEL Reporting Station
Light Rain Light Rain  
Wind Chill: 29°   Ceiling: 200
Heat Index: 37°   Visibility: 1mi
Dew Point: 37°   Wind: 14mph
Humidity: 100%   Direction: 150°SSE
Pressure: 29.68"   Gusts: NA
Location:  43.65°N, 93.37°W
Report Text: KAEL 220831Z AUTO 15012KT 1SM -RA OVC002 03/03 A2968 RMK AO2
Loading
Personal Weather Stations






























Interactive Weather Map New forecast layout! Learn more

10-Day Weather Forecast

Advertisements
Track Severe Weather on mobile